createdAt,value
2017-12-11T00:01:03.507Z,0.60
2017-12-11T00:03:31.741Z,0.93
2017-12-11T00:05:59.986Z,0.57
2017-12-11T00:08:28.226Z,0.50
2017-12-11T00:10:56.470Z,0.60
2017-12-11T00:13:24.718Z,0.93
2017-12-11T00:15:52.970Z,0.50
2017-12-11T00:18:21.979Z,0.50
2017-12-11T00:20:50.235Z,0.50
2017-12-11T00:23:19.245Z,0.47
2017-12-11T00:25:47.503Z,0.50
2017-12-11T00:28:16.514Z,1.13
2017-12-11T00:30:44.753Z,0.83
2017-12-11T00:33:13.011Z,0.40
2017-12-11T00:35:41.252Z,0.40
2017-12-11T00:38:09.497Z,0.50
2017-12-11T00:40:38.513Z,0.40
2017-12-11T00:43:06.766Z,1.13
2017-12-11T00:45:35.769Z,0.63
2017-12-11T00:48:04.025Z,1.47
2017-12-11T00:50:33.034Z,0.43
2017-12-11T00:53:01.294Z,1.80
2017-12-11T00:55:30.297Z,0.50
2017-12-11T00:57:59.323Z,0.40
2017-12-11T01:00:27.561Z,0.40
2017-12-11T01:02:56.585Z,0.40
2017-12-11T01:05:24.823Z,3.30
2017-12-11T01:07:53.838Z,3.40
2017-12-11T01:10:22.076Z,0.97
2017-12-11T01:12:50.334Z,0.50
2017-12-11T01:15:18.586Z,0.70
2017-12-11T01:17:46.838Z,0.50
2017-12-11T01:20:15.843Z,0.47
2017-12-11T01:22:44.098Z,1.00
2017-12-11T01:25:13.101Z,1.13
2017-12-11T01:27:41.359Z,0.40
2017-12-11T01:30:10.373Z,0.80
2017-12-11T01:32:38.615Z,0.50
2017-12-11T01:35:06.869Z,0.60
2017-12-11T01:37:35.122Z,0.90
2017-12-11T01:40:03.384Z,0.50
2017-12-11T01:42:31.630Z,1.23
2017-12-11T01:45:00.633Z,0.40
2017-12-11T01:47:28.878Z,0.50
2017-12-11T01:49:57.120Z,0.50
2017-12-11T01:52:25.362Z,0.60
2017-12-11T01:54:54.379Z,0.40
2017-12-11T01:57:22.623Z,0.53
2017-12-11T01:59:51.640Z,0.40
2017-12-11T02:02:19.886Z,0.53
2017-12-11T02:04:48.906Z,1.80
2017-12-11T02:07:17.145Z,1.17
2017-12-11T02:09:46.167Z,2.03
2017-12-11T02:12:14.409Z,0.50
2017-12-11T02:14:42.678Z,0.93
2017-12-11T02:17:10.930Z,0.40
2017-12-11T02:19:39.938Z,0.73
2017-12-11T02:22:08.190Z,0.97
2017-12-11T02:24:36.426Z,0.40
2017-12-11T02:27:04.682Z,0.40
2017-12-11T02:29:32.925Z,0.50
2017-12-11T02:32:01.191Z,0.50
2017-12-11T02:34:29.445Z,0.40
2017-12-11T02:36:57.690Z,0.50
2017-12-11T02:39:26.698Z,0.60
2017-12-11T02:41:55.726Z,0.30
2017-12-11T02:44:23.978Z,0.60
2017-12-11T02:46:52.222Z,0.50
2017-12-11T02:49:21.237Z,1.00
2017-12-11T02:51:49.499Z,0.40
2017-12-11T02:54:18.504Z,0.83
2017-12-11T02:56:47.525Z,0.50
2017-12-11T02:59:15.757Z,1.47
2017-12-11T03:01:44.780Z,1.10
2017-12-11T03:04:13.017Z,0.50
2017-12-11T03:06:41.277Z,0.50
2017-12-11T03:09:09.533Z,0.57
2017-12-11T03:11:37.771Z,0.40
2017-12-11T03:14:06.018Z,2.17
2017-12-11T03:16:34.398Z,1.37
2017-12-11T03:19:02.646Z,0.70
2017-12-11T03:21:31.661Z,0.50
2017-12-11T03:23:59.910Z,0.53
2017-12-11T03:26:28.158Z,0.43
2017-12-11T03:28:56.416Z,0.50
2017-12-11T03:31:24.659Z,0.60
2017-12-11T03:33:52.915Z,0.80
2017-12-11T03:36:21.166Z,1.67
2017-12-11T03:38:49.422Z,0.80
2017-12-11T03:41:17.672Z,3.40
2017-12-11T03:43:45.910Z,0.50
2017-12-11T03:46:14.160Z,0.70
2017-12-11T03:48:42.397Z,1.17
2017-12-11T03:51:11.417Z,0.53
2017-12-11T03:53:39.665Z,1.07
2017-12-11T03:56:08.685Z,8.23
2017-12-11T03:58:36.924Z,1.53
2017-12-11T04:01:05.173Z,2.10
2017-12-11T04:03:33.417Z,2.30
2017-12-11T04:06:01.674Z,4.70
2017-12-11T04:08:30.686Z,1.80
2017-12-11T04:10:58.944Z,3.03
2017-12-11T04:13:27.954Z,4.30
2017-12-11T04:15:56.217Z,1.30
2017-12-11T04:18:25.213Z,2.00
2017-12-11T04:20:53.479Z,1.80
2017-12-11T04:23:22.476Z,1.57
2017-12-11T04:25:50.730Z,1.10
2017-12-11T04:28:18.970Z,1.93
2017-12-11T04:30:47.223Z,3.77
2017-12-11T04:33:15.460Z,2.80
2017-12-11T04:35:44.483Z,1.30
2017-12-11T04:38:12.722Z,1.40
2017-12-11T04:40:40.975Z,3.83
2017-12-11T04:43:09.229Z,1.83
2017-12-11T04:45:37.462Z,1.20
2017-12-11T04:48:06.476Z,2.00
2017-12-11T04:50:34.731Z,1.90
2017-12-11T04:53:03.742Z,0.93
2017-12-11T04:55:31.989Z,1.63
2017-12-11T04:58:01.005Z,0.70
2017-12-11T05:00:29.246Z,0.50
2017-12-11T05:02:57.503Z,10.03
2017-12-11T05:05:25.750Z,3.70
2017-12-11T05:07:54.002Z,1.73
2017-12-11T05:10:22.246Z,1.10
2017-12-11T05:12:50.488Z,1.50
2017-12-11T05:15:18.734Z,4.37
2017-12-11T05:17:46.978Z,3.37
2017-12-11T05:20:15.230Z,0.93
2017-12-11T05:22:43.476Z,1.60
2017-12-11T05:25:11.714Z,0.70
2017-12-11T05:27:40.727Z,0.80
2017-12-11T05:30:08.983Z,1.53
2017-12-11T05:32:37.999Z,1.17
2017-12-11T05:35:06.250Z,1.20
2017-12-11T05:37:35.260Z,1.07
2017-12-11T05:40:03.513Z,1.53
2017-12-11T05:42:32.528Z,1.07
2017-12-11T05:45:00.781Z,3.63
2017-12-11T05:47:29.029Z,1.37
2017-12-11T05:49:57.278Z,1.50
2017-12-11T05:52:25.522Z,1.73
2017-12-11T05:54:54.541Z,3.03
2017-12-11T05:57:22.782Z,2.53
2017-12-11T05:59:51.808Z,1.80
2017-12-11T06:02:20.049Z,1.60
2017-12-11T06:04:49.066Z,1.73
2017-12-11T06:07:17.322Z,1.63
2017-12-11T06:09:46.325Z,1.80
2017-12-11T06:12:14.582Z,2.60
2017-12-11T06:14:43.601Z,2.47
2017-12-11T06:17:11.855Z,2.30
2017-12-11T06:19:40.865Z,2.13
2017-12-11T06:22:09.121Z,1.57
2017-12-11T06:24:37.373Z,6.40
2017-12-11T06:27:05.621Z,2.17
2017-12-11T06:29:33.870Z,1.57
2017-12-11T06:32:02.118Z,1.30
2017-12-11T06:34:31.137Z,1.50
2017-12-11T06:36:59.373Z,2.23
2017-12-11T06:39:27.622Z,2.73
2017-12-11T06:41:55.865Z,1.40
2017-12-11T06:44:24.122Z,1.47
2017-12-11T06:46:53.131Z,1.60
2017-12-11T06:49:21.382Z,1.20
2017-12-11T06:51:49.618Z,2.03
2017-12-11T06:54:17.875Z,2.60
2017-12-11T06:56:46.111Z,1.97
2017-12-11T06:59:15.132Z,2.40
2017-12-11T07:01:43.379Z,2.57
2017-12-11T07:04:12.394Z,3.07
2017-12-11T07:06:40.643Z,5.13
2017-12-11T07:09:08.895Z,2.57
2017-12-11T07:11:37.141Z,2.23
2017-12-11T07:14:05.397Z,2.60
2017-12-11T07:16:33.647Z,2.30
2017-12-11T07:19:02.670Z,3.50
2017-12-11T07:21:30.913Z,3.37
2017-12-11T07:23:59.946Z,3.20
2017-12-11T07:26:28.199Z,4.27
2017-12-11T07:28:57.206Z,4.63
2017-12-11T07:31:25.467Z,4.73
2017-12-11T07:33:54.483Z,5.80
2017-12-11T07:36:22.742Z,5.80
2017-12-11T07:38:50.994Z,6.20
2017-12-11T07:41:20.026Z,6.23
2017-12-11T07:43:48.282Z,7.23
2017-12-11T07:46:17.301Z,7.60
2017-12-11T07:48:45.542Z,10.20
2017-12-11T07:51:14.569Z,8.23
2017-12-11T07:53:42.823Z,8.67
2017-12-11T07:56:11.849Z,8.50
2017-12-11T07:58:40.097Z,10.43
2017-12-11T08:01:09.194Z,9.60
2017-12-11T08:03:37.446Z,9.43
2017-12-11T08:06:06.456Z,9.77
2017-12-11T08:08:34.715Z,10.10
2017-12-11T08:11:03.730Z,12.83
2017-12-11T08:13:31.993Z,11.70
2017-12-11T08:16:01.002Z,9.53
2017-12-11T08:18:29.285Z,11.30
2017-12-11T08:20:57.534Z,11.47
2017-12-11T08:23:26.554Z,10.57
2017-12-11T08:25:54.803Z,12.67
2017-12-11T08:28:23.827Z,9.00
2017-12-11T08:30:52.084Z,14.67
2017-12-11T08:33:20.369Z,11.40
2017-12-11T08:35:48.623Z,14.93
2017-12-11T08:38:17.646Z,11.40
2017-12-11T08:40:45.917Z,13.50
2017-12-11T08:43:14.153Z,13.53
2017-12-11T08:45:42.410Z,13.23
2017-12-11T08:48:10.666Z,15.20
2017-12-11T08:50:38.910Z,17.50
2017-12-11T08:53:07.167Z,17.80
2017-12-11T08:55:36.192Z,18.80
2017-12-11T08:58:04.443Z,22.73
2017-12-11T09:00:33.471Z,20.93
2017-12-11T09:03:01.714Z,26.13
2017-12-11T09:05:30.740Z,23.30
2017-12-11T09:07:58.986Z,22.93
2017-12-11T09:10:27.243Z,23.60
2017-12-11T09:12:56.260Z,27.50
2017-12-11T09:15:24.514Z,20.20
2017-12-11T09:17:53.537Z,19.93
2017-12-11T09:20:21.790Z,20.00
2017-12-11T09:22:50.815Z,21.23
2017-12-11T09:25:19.054Z,26.80
2017-12-11T09:27:48.083Z,22.53
2017-12-11T09:30:16.335Z,26.60
2017-12-11T09:32:44.589Z,26.77
2017-12-11T09:35:13.607Z,28.90
2017-12-11T09:37:41.870Z,23.20
2017-12-11T09:40:10.876Z,26.37
2017-12-11T09:42:39.150Z,21.03
2017-12-11T09:45:07.397Z,21.70
2017-12-11T09:47:35.660Z,22.73
2017-12-11T09:50:03.909Z,27.67
2017-12-11T09:52:32.171Z,22.70
2017-12-11T09:55:00.426Z,24.00
2017-12-11T09:57:28.708Z,24.90
2017-12-11T09:59:56.956Z,22.20
2017-12-11T10:02:25.214Z,20.10
2017-12-11T10:04:53.476Z,26.57
2017-12-11T10:07:21.721Z,28.07
2017-12-11T10:09:49.973Z,28.00
2017-12-11T10:12:18.230Z,25.17
2017-12-11T10:14:46.485Z,18.37
2017-12-11T10:17:14.740Z,25.00
2017-12-11T10:19:42.999Z,22.27
2017-12-11T10:22:11.249Z,21.53
2017-12-11T10:24:40.283Z,23.00
2017-12-11T10:27:08.531Z,21.50
2017-12-11T10:29:36.789Z,21.40
2017-12-11T10:32:05.806Z,17.10
2017-12-11T10:34:34.066Z,16.47
2017-12-11T10:37:02.318Z,19.63
2017-12-11T10:39:30.566Z,18.93
2017-12-11T10:41:58.814Z,14.53
2017-12-11T10:44:27.073Z,13.77
2017-12-11T10:46:55.324Z,13.20
2017-12-11T10:49:24.353Z,17.80
2017-12-11T10:51:52.615Z,17.00
2017-12-11T10:54:20.860Z,18.30
2017-12-11T10:56:49.126Z,17.77
2017-12-11T10:59:17.386Z,20.60
2017-12-11T11:01:45.648Z,21.53
2017-12-11T11:04:13.894Z,22.60
2017-12-11T11:06:42.149Z,17.53
2017-12-11T11:09:11.192Z,17.30
2017-12-11T11:11:39.422Z,16.30
2017-12-11T11:14:08.443Z,14.67
2017-12-11T11:16:36.698Z,14.30
2017-12-11T11:19:04.952Z,13.47
2017-12-11T11:21:33.217Z,12.37
2017-12-11T11:24:01.471Z,12.50
2017-12-11T11:26:29.717Z,9.97
2017-12-11T11:28:57.966Z,9.10
2017-12-11T11:31:26.998Z,8.10
2017-12-11T11:33:55.254Z,7.43
2017-12-11T11:36:23.512Z,9.13
2017-12-11T11:38:52.525Z,6.27
2017-12-11T11:41:20.771Z,6.80
2017-12-11T11:43:49.797Z,4.90
2017-12-11T11:46:18.085Z,6.40
2017-12-11T11:48:46.333Z,6.13
2017-12-11T11:51:15.353Z,6.23
2017-12-11T11:53:43.592Z,5.00
2017-12-11T11:56:12.619Z,6.07
2017-12-11T11:58:40.858Z,6.73
2017-12-11T12:01:09.879Z,5.13
2017-12-11T12:03:38.135Z,5.80
2017-12-11T12:06:07.175Z,7.00
2017-12-11T12:08:35.422Z,6.20
2017-12-11T12:11:03.671Z,4.03
2017-12-11T12:13:32.699Z,6.43
2017-12-11T12:16:00.943Z,5.73
2017-12-11T12:18:29.965Z,5.03
2017-12-11T12:20:58.216Z,7.00
2017-12-11T12:23:27.236Z,6.37
2017-12-11T12:25:55.488Z,6.47
2017-12-11T12:28:24.504Z,6.37
2017-12-11T12:30:52.750Z,6.73
2017-12-11T12:33:21.867Z,6.23
2017-12-11T12:35:50.111Z,6.33
2017-12-11T12:38:18.358Z,8.20
2017-12-11T12:40:46.614Z,7.80
2017-12-11T12:43:14.852Z,8.37
2017-12-11T12:45:43.878Z,7.03
2017-12-11T12:48:12.134Z,6.40
2017-12-11T12:50:40.370Z,5.63
2017-12-11T12:53:10.132Z,5.83
2017-12-11T12:55:38.380Z,6.30
2017-12-11T12:58:07.427Z,6.03
2017-12-11T13:00:35.652Z,5.97
2017-12-11T13:03:03.912Z,5.97
2017-12-11T13:05:32.943Z,5.10
2017-12-11T13:08:01.182Z,10.33
2017-12-11T13:10:30.197Z,7.63
2017-12-11T13:12:58.441Z,8.90
2017-12-11T13:15:26.686Z,6.43
2017-12-11T13:17:54.948Z,5.73
2017-12-11T13:20:23.199Z,6.20
2017-12-11T13:22:51.450Z,8.07
2017-12-11T13:25:20.463Z,5.83
2017-12-11T13:27:48.709Z,6.17
2017-12-11T13:30:16.954Z,8.03
2017-12-11T13:32:45.222Z,8.73
2017-12-11T13:35:13.471Z,8.23
2017-12-11T13:37:41.717Z,7.03
2017-12-11T13:40:09.974Z,6.13
2017-12-11T13:42:38.214Z,6.47
2017-12-11T13:45:06.473Z,7.60
2017-12-11T13:47:34.721Z,6.30
2017-12-11T13:50:03.754Z,6.67
2017-12-11T13:52:31.997Z,6.17
2017-12-11T13:55:01.024Z,6.10
2017-12-11T13:57:29.271Z,6.90
2017-12-11T13:59:58.294Z,7.30
2017-12-11T14:02:26.535Z,5.67
2017-12-11T14:04:54.789Z,7.40
2017-12-11T14:07:23.036Z,7.20
2017-12-11T14:09:51.295Z,7.70
2017-12-11T14:12:19.544Z,7.23
2017-12-11T14:14:47.801Z,6.43
2017-12-11T14:17:16.822Z,7.73
2017-12-11T14:19:45.070Z,10.63
2017-12-11T14:22:14.084Z,7.63
2017-12-11T14:24:42.326Z,8.87
2017-12-11T14:27:10.582Z,8.33
2017-12-11T14:29:38.835Z,8.03
2017-12-11T14:32:07.094Z,6.40
2017-12-11T14:34:35.342Z,7.83
2017-12-11T14:37:03.595Z,7.90
2017-12-11T14:39:31.842Z,6.90
2017-12-11T14:42:00.094Z,7.30
2017-12-11T14:44:28.342Z,12.63
2017-12-11T14:46:57.362Z,8.47
2017-12-11T14:49:25.613Z,10.60
2017-12-11T14:51:54.703Z,10.77
2017-12-11T14:54:22.947Z,6.93
2017-12-11T14:56:51.189Z,6.93
2017-12-11T14:59:19.441Z,11.43
2017-12-11T15:01:48.467Z,11.37
2017-12-11T15:04:16.726Z,7.30
2017-12-11T15:06:45.025Z,7.60
2017-12-11T15:09:14.011Z,16.03
2017-12-11T15:11:42.266Z,15.63
2017-12-11T15:14:10.530Z,23.80
2017-12-11T15:16:39.549Z,19.00
2017-12-11T15:19:07.803Z,19.20
2017-12-11T15:21:36.831Z,20.30
2017-12-11T15:24:05.083Z,20.13
2017-12-11T15:26:33.347Z,29.23
2017-12-11T15:29:02.419Z,22.17
2017-12-11T15:31:30.625Z,27.30
2017-12-11T15:33:58.883Z,30.70
2017-12-11T15:36:27.904Z,26.17
2017-12-11T15:38:56.148Z,20.77
2017-12-11T15:41:25.175Z,20.43
2017-12-11T15:43:53.425Z,15.90
2017-12-11T15:46:21.694Z,23.23
2017-12-11T15:48:50.724Z,15.67
2017-12-11T15:51:18.987Z,21.47
2017-12-11T15:53:47.230Z,11.77
2017-12-11T15:56:15.481Z,12.07
2017-12-11T15:58:43.730Z,12.57
2017-12-11T16:01:11.984Z,7.47
2017-12-11T16:03:40.234Z,12.13
2017-12-11T16:06:08.482Z,8.63
2017-12-11T16:08:36.730Z,7.20
2017-12-11T16:11:04.972Z,5.77
2017-12-11T16:13:33.996Z,5.10
2017-12-11T16:16:02.239Z,13.50
2017-12-11T16:18:31.253Z,7.47
2017-12-11T16:20:59.509Z,19.43
2017-12-11T16:23:28.538Z,10.90
2017-12-11T16:25:56.782Z,16.57
2017-12-11T16:28:25.814Z,12.30
2017-12-11T16:30:54.053Z,11.97
2017-12-11T16:33:23.080Z,10.53
2017-12-11T16:35:51.331Z,10.97
2017-12-11T16:38:19.585Z,7.90
2017-12-11T16:40:48.602Z,8.77
2017-12-11T16:43:16.851Z,9.40
2017-12-11T16:45:45.861Z,12.60
2017-12-11T16:48:14.878Z,6.80
2017-12-11T16:50:43.140Z,16.93
2017-12-11T16:53:11.387Z,13.23
2017-12-11T16:55:40.414Z,13.13
2017-12-11T16:58:08.672Z,14.97
2017-12-11T17:00:37.693Z,14.70
2017-12-11T17:03:05.961Z,12.40
2017-12-11T17:05:34.206Z,11.73
2017-12-11T17:08:03.243Z,16.97
2017-12-11T17:10:31.490Z,16.03
2017-12-11T17:12:59.747Z,15.23
2017-12-11T17:15:28.758Z,11.57
2017-12-11T17:17:57.020Z,15.57
2017-12-11T17:20:26.035Z,17.07
2017-12-11T17:22:54.303Z,18.03
2017-12-11T17:25:22.546Z,15.70
2017-12-11T17:27:50.794Z,19.63
2017-12-11T17:30:19.054Z,16.87
2017-12-11T17:32:47.307Z,13.10
2017-12-11T17:35:15.562Z,11.60
2017-12-11T17:37:44.586Z,13.27
2017-12-11T17:40:12.842Z,11.83
2017-12-11T17:42:41.090Z,8.03
2017-12-11T17:45:09.346Z,8.87
2017-12-11T17:47:38.357Z,12.13
2017-12-11T17:50:06.614Z,6.70
2017-12-11T17:52:34.866Z,8.10
2017-12-11T17:55:03.118Z,6.23
2017-12-11T17:57:32.123Z,6.13
2017-12-11T18:00:00.386Z,7.23
2017-12-11T18:02:28.638Z,8.07
2017-12-11T18:04:56.882Z,6.73
2017-12-11T18:07:25.142Z,6.47
2017-12-11T18:09:53.385Z,5.70
2017-12-11T18:12:22.394Z,5.90
2017-12-11T18:14:50.638Z,6.73
2017-12-11T18:17:19.654Z,5.10
2017-12-11T18:19:47.910Z,5.93
2017-12-11T18:22:16.919Z,5.37
2017-12-11T18:24:45.186Z,8.17
2017-12-11T18:27:14.203Z,5.80
2017-12-11T18:29:42.444Z,6.87
2017-12-11T18:32:11.458Z,6.70
2017-12-11T18:34:39.709Z,6.60
2017-12-11T18:37:08.720Z,8.10
2017-12-11T18:39:36.972Z,7.07
2017-12-11T18:42:05.222Z,5.10
2017-12-11T18:44:34.267Z,4.90
2017-12-11T18:47:02.518Z,4.00
2017-12-11T18:49:31.530Z,5.10
2017-12-11T18:51:59.790Z,4.20
2017-12-11T18:54:28.805Z,3.47
2017-12-11T18:56:57.049Z,5.07
2017-12-11T18:59:25.292Z,3.53
2017-12-11T19:01:53.552Z,2.00
2017-12-11T19:04:21.802Z,1.30
2017-12-11T19:06:50.058Z,1.80
2017-12-11T19:09:19.074Z,1.40
2017-12-11T19:11:47.325Z,1.20
2017-12-11T19:14:16.340Z,1.07
2017-12-11T19:16:44.591Z,7.17
2017-12-11T19:19:12.833Z,6.37
2017-12-11T19:21:41.086Z,3.23
2017-12-11T19:24:09.332Z,1.67
2017-12-11T19:26:38.359Z,1.77
2017-12-11T19:29:06.603Z,0.83
2017-12-11T19:31:35.610Z,1.17
2017-12-11T19:34:03.859Z,1.20
2017-12-11T19:36:32.881Z,0.90
2017-12-11T19:39:01.130Z,0.90
2017-12-11T19:41:30.144Z,1.60
2017-12-11T19:43:58.398Z,1.30
2017-12-11T19:46:27.410Z,0.83
2017-12-11T19:48:55.652Z,1.60
2017-12-11T19:51:23.899Z,1.47
2017-12-11T19:53:52.154Z,0.90
2017-12-11T19:56:20.403Z,2.40
2017-12-11T19:58:49.424Z,0.87
2017-12-11T20:01:17.665Z,0.70
2017-12-11T20:03:46.694Z,0.70
2017-12-11T20:06:14.943Z,0.90
2017-12-11T20:08:43.962Z,0.70
2017-12-11T20:11:12.263Z,0.87
2017-12-11T20:13:41.231Z,0.80
2017-12-11T20:16:09.478Z,1.50
2017-12-11T20:18:38.489Z,0.80
2017-12-11T20:21:06.737Z,0.60
2017-12-11T20:23:35.794Z,1.67
2017-12-11T20:26:04.025Z,0.70
2017-12-11T20:28:32.276Z,1.37
2017-12-11T20:31:00.522Z,0.90
2017-12-11T20:33:28.758Z,1.10
2017-12-11T20:35:57.006Z,0.70
2017-12-11T20:38:26.066Z,0.90
2017-12-11T20:40:54.301Z,1.10
2017-12-11T20:43:22.552Z,0.73
2017-12-11T20:45:51.563Z,0.60
2017-12-11T20:48:19.812Z,1.00
2017-12-11T20:50:48.837Z,1.70
2017-12-11T20:53:17.078Z,1.67
2017-12-11T20:55:46.103Z,1.10
2017-12-11T20:58:14.639Z,0.90
2017-12-11T21:00:43.386Z,1.07
2017-12-11T21:03:11.630Z,1.03
2017-12-11T21:05:40.650Z,0.80
2017-12-11T21:08:08.895Z,2.63
2017-12-11T21:10:37.997Z,0.83
2017-12-11T21:13:06.198Z,0.90
2017-12-11T21:15:34.444Z,1.00
2017-12-11T21:18:03.472Z,0.83
2017-12-11T21:20:31.714Z,0.97
2017-12-11T21:23:00.736Z,0.70
2017-12-11T21:25:28.983Z,1.00
2017-12-11T21:27:58.004Z,0.70
2017-12-11T21:30:26.251Z,2.10
2017-12-11T21:32:55.257Z,0.60
2017-12-11T21:35:23.567Z,1.03
2017-12-11T21:37:51.860Z,0.57
2017-12-11T21:40:20.128Z,0.60
2017-12-11T21:42:48.415Z,0.70
2017-12-11T21:45:16.699Z,0.70
2017-12-11T21:47:44.991Z,0.70
2017-12-11T21:50:14.054Z,0.80
2017-12-11T21:52:42.361Z,0.60
2017-12-11T21:55:10.685Z,0.40
2017-12-11T21:57:38.966Z,0.50
2017-12-11T22:00:07.250Z,0.60
2017-12-11T22:02:35.591Z,0.50
2017-12-11T22:05:03.955Z,0.50
2017-12-11T22:07:33.087Z,0.87
2017-12-11T22:10:01.416Z,0.53
2017-12-11T22:12:29.714Z,0.50
2017-12-11T22:14:58.774Z,0.60
2017-12-11T22:17:27.329Z,0.40
2017-12-11T22:19:55.822Z,0.50
2017-12-11T22:22:24.202Z,0.50
2017-12-11T22:24:52.592Z,2.10
2017-12-11T22:27:20.857Z,0.60
2017-12-11T22:29:49.106Z,1.57
2017-12-11T22:32:17.375Z,0.50
2017-12-11T22:34:45.617Z,0.77
2017-12-11T22:37:14.636Z,0.57
2017-12-11T22:39:42.887Z,0.80
2017-12-11T22:42:11.898Z,0.80
2017-12-11T22:44:40.150Z,0.60
2017-12-11T22:47:09.155Z,0.90
2017-12-11T22:49:38.172Z,0.57
2017-12-11T22:52:06.430Z,0.70
2017-12-11T22:54:34.668Z,0.60
2017-12-11T22:57:02.926Z,0.40
2017-12-11T22:59:31.920Z,0.57
2017-12-11T23:02:00.250Z,0.57
2017-12-11T23:04:28.452Z,0.63
2017-12-11T23:06:56.695Z,0.40
2017-12-11T23:09:25.717Z,1.90
2017-12-11T23:11:53.962Z,0.50
2017-12-11T23:14:22.978Z,0.40
2017-12-11T23:16:51.234Z,0.60
2017-12-11T23:19:20.247Z,0.40
2017-12-11T23:21:48.481Z,0.63
2017-12-11T23:24:17.502Z,1.03
2017-12-11T23:26:45.804Z,0.60
2017-12-11T23:29:14.775Z,0.40
2017-12-11T23:31:43.014Z,0.57
2017-12-11T23:34:11.265Z,0.97
2017-12-11T23:36:40.275Z,0.50
2017-12-11T23:39:08.525Z,0.40
2017-12-11T23:41:36.780Z,0.50
2017-12-11T23:44:05.030Z,0.40
2017-12-11T23:46:34.032Z,0.60
2017-12-11T23:49:02.286Z,0.43
2017-12-11T23:51:31.289Z,0.40
2017-12-11T23:54:17.994Z,1.67
2017-12-11T23:56:46.999Z,0.47
2017-12-11T23:59:15.257Z,0.40
